Time;durP1;ratioP1;P1;durP2;ratioP2;P2;SDS_P1;SDS_P2;PMS_P1;PMS_P2;Temp;Humidity;BMP_temperature;BMP_pressure;BME280_temperature;BME280_humidity;BME280_pressure;Samples;Min_cycle;Max_cycle;Signal;HPM_P1;HPM_P2
2022/03/02 00:01:14;;;;;;;49.38;23.23;;;4.00;25.40;;;;;;4939686;29;20199;-79
2022/03/02 00:03:41;;;;;;;49.72;21.60;;;4.20;25.60;;;;;;4939553;29;20278;-78
2022/03/02 00:06:07;;;;;;;49.78;24.10;;;4.10;24.80;;;;;;4939352;29;20195;-78
2022/03/02 00:08:32;;;;;;;51.50;22.93;;;4.00;25.10;;;;;;4939600;29;20595;-79
2022/03/02 00:10:58;;;;;;;48.87;24.33;;;4.10;24.80;;;;;;4940255;29;20251;-80
2022/03/02 00:13:24;;;;;;;50.07;23.50;;;4.00;25.30;;;;;;4941705;29;20196;-80
2022/03/02 00:15:49;;;;;;;56.20;24.27;;;4.10;24.90;;;;;;4941547;29;20180;-80
2022/03/02 00:18:15;;;;;;;50.87;23.10;;;3.90;24.90;;;;;;4939272;29;20211;-78
2022/03/02 00:20:41;;;;;;;54.90;24.23;;;3.90;24.90;;;;;;4940804;29;20203;-80
2022/03/02 00:23:06;;;;;;;51.70;24.37;;;3.60;25.10;;;;;;4941569;29;20195;-80
2022/03/02 00:25:32;;;;;;;53.23;25.80;;;3.60;25.60;;;;;;4941847;29;20184;-81
2022/03/02 00:27:58;;;;;;;50.20;23.92;;;3.80;25.00;;;;;;4940348;29;20200;-78
2022/03/02 00:30:28;;;;;;;54.67;24.13;;;4.00;25.50;;;;;;4946780;29;20172;-79
2022/03/02 00:32:56;;;;;;;53.20;24.88;;;3.90;25.40;;;;;;4949632;29;20932;-79
2022/03/02 00:35:22;;;;;;;54.65;24.67;;;3.90;26.20;;;;;;4939424;29;20212;-78
2022/03/02 00:37:48;;;;;;;53.10;23.50;;;3.90;25.40;;;;;;4938772;29;20247;-78
2022/03/02 00:40:14;;;;;;;54.03;25.20;;;3.90;25.60;;;;;;4939708;29;20680;-78
2022/03/02 00:42:39;;;;;;;50.47;23.77;;;4.00;25.30;;;;;;4937106;29;20218;-78
2022/03/02 00:45:05;;;;;;;53.17;23.23;;;4.10;25.40;;;;;;4933449;29;20591;-79
2022/03/02 00:47:31;;;;;;;55.10;25.00;;;3.90;25.40;;;;;;4919836;29;20283;-78
2022/03/02 00:49:57;;;;;;;57.67;24.75;;;4.10;25.40;;;;;;4929654;29;20462;-78
2022/03/02 00:52:23;;;;;;;52.47;25.83;;;4.00;25.10;;;;;;4936828;29;20212;-80
2022/03/02 00:54:49;;;;;;;57.20;23.63;;;3.40;26.10;;;;;;4940946;29;20184;-80
2022/03/02 00:57:15;;;;;;;52.67;24.13;;;3.60;26.60;;;;;;4940962;29;20184;-80
2022/03/02 00:59:41;;;;;;;56.10;25.87;;;3.30;27.20;;;;;;4941008;29;20184;-80
2022/03/02 01:02:07;;;;;;;55.47;25.20;;;3.30;26.40;;;;;;4941075;29;20204;-80
2022/03/02 01:04:32;;;;;;;58.07;26.00;;;3.60;26.40;;;;;;4938336;29;20608;-81
2022/03/02 01:06:58;;;;;;;57.97;27.30;;;3.60;25.90;;;;;;4936496;29;20215;-80
2022/03/02 01:09:23;;;;;;;59.50;26.23;;;3.30;26.00;;;;;;4940041;29;20244;-80
2022/03/02 01:11:49;;;;;;;53.67;26.40;;;3.30;26.40;;;;;;4940406;29;20204;-80
2022/03/02 01:14:15;;;;;;;55.70;27.33;;;3.50;26.10;;;;;;4940523;29;20226;-80
2022/03/02 01:16:40;;;;;;;62.53;27.50;;;3.50;26.50;;;;;;4938501;29;20176;-78
2022/03/02 01:19:06;;;;;;;64.50;27.33;;;4.10;26.40;;;;;;4938242;29;20182;-80
2022/03/02 01:21:32;;;;;;;60.67;26.33;;;3.90;25.40;;;;;;4937486;29;20191;-79
2022/03/02 01:23:59;;;;;;;57.50;25.23;;;3.90;25.90;;;;;;4937216;29;20195;-78
2022/03/02 01:26:25;;;;;;;67.40;27.40;;;3.90;25.80;;;;;;4937646;29;20180;-79
2022/03/02 01:28:54;;;;;;;55.03;26.63;;;4.50;26.10;;;;;;4938506;29;20260;-78
2022/03/02 01:31:21;;;;;;;60.58;26.77;;;3.80;25.70;;;;;;4939895;29;20710;-81
2022/03/02 01:33:49;;;;;;;58.63;27.10;;;1.10;24.40;;;;;;4940544;29;20279;-81
2022/03/02 01:36:15;;;;;;;58.03;26.40;;;3.30;26.10;;;;;;4938659;29;20179;-78
2022/03/02 01:38:40;;;;;;;62.03;25.80;;;3.50;26.20;;;;;;4936446;29;20194;-78
2022/03/02 01:41:06;;;;;;;57.50;26.87;;;5.50;28.20;;;;;;4937751;29;20172;-78
2022/03/02 01:43:32;;;;;;;64.27;26.40;;;3.70;27.10;;;;;;4938524;29;20176;-78
2022/03/02 01:45:57;;;;;;;62.23;27.63;;;3.40;26.70;;;;;;4938142;29;20247;-78
2022/03/02 01:48:23;;;;;;;50.50;25.43;;;3.40;26.80;;;;;;4936185;29;20228;-78
2022/03/02 01:50:49;;;;;;;58.00;27.60;;;3.50;26.60;;;;;;4936178;29;20184;-77
2022/03/02 01:53:14;;;;;;;53.30;25.40;;;3.40;27.00;;;;;;4937627;29;20203;-78
2022/03/02 01:55:40;;;;;;;62.40;27.00;;;3.50;27.60;;;;;;4930846;29;20206;-78
2022/03/02 01:58:06;;;;;;;63.03;26.67;;;3.60;27.50;;;;;;4936948;29;20180;-78
2022/03/02 02:00:31;;;;;;;59.83;25.60;;;3.90;25.80;;;;;;4938093;29;20176;-81
2022/03/02 02:02:57;;;;;;;51.30;25.80;;;3.70;26.30;;;;;;4940307;29;20214;-81
2022/03/02 02:05:23;;;;;;;52.25;25.35;;;3.80;26.70;;;;;;4935254;29;20424;-78
2022/03/02 02:07:50;;;;;;;51.03;25.05;;;3.50;27.50;;;;;;4938363;29;20211;-78
2022/03/02 02:10:16;;;;;;;52.60;24.40;;;3.70;27.00;;;;;;4952071;29;20648;-78
2022/03/02 02:12:41;;;;;;;60.42;24.75;;;3.90;26.40;;;;;;4937299;29;20196;-78
2022/03/02 02:15:09;;;;;;;53.80;26.37;;;3.80;25.60;;;;;;4936160;29;20659;-78
2022/03/02 02:17:35;;;;;;;59.35;25.67;;;3.80;26.50;;;;;;4935021;29;20184;-78
2022/03/02 02:20:02;;;;;;;50.35;24.35;;;3.60;26.10;;;;;;4918140;29;20315;-78
2022/03/02 02:22:28;;;;;;;48.03;24.15;;;3.40;27.30;;;;;;4918324;29;20197;-79
2022/03/02 02:24:54;;;;;;;51.20;25.17;;;3.70;27.30;;;;;;4918409;29;20308;-79
2022/03/02 02:27:19;;;;;;;55.30;25.23;;;3.70;26.20;;;;;;4925006;29;20200;-79
2022/03/02 02:29:48;;;;;;;48.63;23.63;;;3.70;26.30;;;;;;4935471;29;20188;-79
2022/03/02 02:32:13;;;;;;;50.85;24.45;;;4.10;25.10;;;;;;4937261;29;20288;-78
2022/03/02 02:34:40;;;;;;;55.23;23.17;;;4.10;25.20;;;;;;4936787;29;20255;-79
2022/03/02 02:37:08;;;;;;;52.42;24.80;;;4.00;25.50;;;;;;4936879;29;20180;-78
2022/03/02 02:39:35;;;;;;;45.30;21.23;;;4.10;25.20;;;;;;4936231;29;20195;-79
2022/03/02 02:42:08;;;;;;;53.33;24.30;;;4.20;25.00;;;;;;4936974;29;20211;-79
2022/03/02 02:44:35;;;;;;;51.33;23.65;;;3.90;25.70;;;;;;4936888;29;20176;-78
2022/03/02 02:47:01;;;;;;;49.15;23.00;;;3.80;25.90;;;;;;4936556;29;20200;-78
2022/03/02 02:49:27;;;;;;;46.83;23.00;;;4.10;25.50;;;;;;4921884;29;20188;-78
2022/03/02 02:51:54;;;;;;;48.40;23.58;;;4.00;25.60;;;;;;4936669;29;20244;-79
2022/03/02 02:54:22;;;;;;;52.17;23.73;;;3.70;26.50;;;;;;4936767;29;20207;-79
2022/03/02 02:56:48;;;;;;;52.05;22.85;;;3.70;25.80;;;;;;4951558;28;20211;-79
2022/03/02 02:59:14;;;;;;;53.13;21.83;;;3.80;26.10;;;;;;4936099;29;20255;-81
2022/03/02 03:01:39;;;;;;;58.43;23.90;;;3.60;26.00;;;;;;4943106;29;20211;-80
2022/03/02 03:04:06;;;;;;;56.07;23.60;;;3.30;26.70;;;;;;4947122;29;20649;-79
2022/03/02 03:06:33;;;;;;;59.05;23.67;;;3.20;26.90;;;;;;4943421;29;20191;-79
2022/03/02 03:08:58;;;;;;;52.92;24.40;;;2.60;27.70;;;;;;4942169;29;20199;-79
2022/03/02 03:11:24;;;;;;;44.37;22.43;;;2.20;28.20;;;;;;4943353;29;20538;-79
2022/03/02 03:13:50;;;;;;;46.33;22.73;;;1.80;28.50;;;;;;4958244;28;20443;-79
2022/03/02 03:16:15;;;;;;;46.03;21.97;;;1.40;29.40;;;;;;4945205;29;20188;-79
2022/03/02 03:18:41;;;;;;;49.70;23.27;;;1.00;30.10;;;;;;4932385;29;20180;-79
2022/03/02 03:21:07;;;;;;;59.33;24.90;;;0.90;30.70;;;;;;4934747;29;20227;-79
2022/03/02 03:23:32;;;;;;;57.53;25.70;;;1.00;30.60;;;;;;4951097;29;20188;-79
2022/03/02 03:25:58;;;;;;;55.20;25.03;;;1.20;30.10;;;;;;4949914;29;20188;-79
2022/03/02 03:28:23;;;;;;;57.20;25.93;;;1.60;30.40;;;;;;4926988;29;20615;-79
2022/03/02 03:30:49;;;;;;;56.70;24.20;;;2.20;29.50;;;;;;4942256;29;20184;-79
2022/03/02 03:33:15;;;;;;;51.70;24.97;;;2.20;28.80;;;;;;4941955;29;20196;-79
2022/03/02 03:35:40;;;;;;;54.80;25.40;;;2.40;28.30;;;;;;4941362;29;20188;-79
2022/03/02 03:38:06;;;;;;;57.57;26.17;;;2.80;28.70;;;;;;4940476;29;20218;-79
2022/03/02 03:40:31;;;;;;;69.90;25.00;;;2.50;28.50;;;;;;4942754;29;20687;-79
2022/03/02 03:42:58;;;;;;;45.67;22.93;;;2.50;28.30;;;;;;4942789;29;20231;-79
2022/03/02 03:45:24;;;;;;;52.42;23.25;;;2.60;28.60;;;;;;4941697;29;20208;-79
2022/03/02 03:47:49;;;;;;;50.47;25.30;;;2.50;28.20;;;;;;4955290;28;20235;-80
2022/03/02 03:50:15;;;;;;;50.27;23.20;;;3.10;28.00;;;;;;4942303;29;20412;-79
2022/03/02 03:52:42;;;;;;;46.20;23.13;;;3.00;27.00;;;;;;4942862;29;20431;-79
2022/03/02 03:55:12;;;;;;;58.63;24.70;;;2.70;27.90;;;;;;4957303;29;20424;-80
2022/03/02 03:57:38;;;;;;;54.50;22.83;;;2.90;27.90;;;;;;4938889;29;20192;-80
2022/03/02 04:00:11;;;;;;;46.03;22.67;;;3.10;27.00;;;;;;4941448;29;20180;-79
2022/03/02 04:02:36;;;;;;;49.00;23.27;;;3.10;27.40;;;;;;4941228;29;20206;-80
2022/03/02 04:05:03;;;;;;;50.40;22.07;;;3.10;27.10;;;;;;4942136;29;20251;-79
2022/03/02 04:07:29;;;;;;;47.63;20.27;;;2.90;27.50;;;;;;4940940;29;20211;-80
2022/03/02 04:09:55;;;;;;;45.20;21.67;;;3.00;27.20;;;;;;4940068;29;20599;-79
2022/03/02 04:12:20;;;;;;;46.57;22.37;;;2.60;28.50;;;;;;4940778;29;20192;-79
2022/03/02 04:14:47;;;;;;;59.53;22.07;;;2.90;28.50;;;;;;4941182;29;20180;-79
2022/03/02 04:17:12;;;;;;;39.67;21.40;;;2.60;29.40;;;;;;4941301;29;21001;-79
2022/03/02 04:19:39;;;;;;;47.17;20.70;;;2.90;27.90;;;;;;4931403;29;20271;-79
2022/03/02 04:22:05;;;;;;;45.08;21.77;;;3.00;27.60;;;;;;4921824;29;20200;-79
2022/03/02 04:24:31;;;;;;;46.27;21.40;;;3.80;27.70;;;;;;4941055;29;20183;-79
2022/03/02 04:26:57;;;;;;;44.60;22.00;;;3.40;28.20;;;;;;4942545;29;20971;-79
2022/03/02 04:29:23;;;;;;;53.15;24.52;;;2.90;27.90;;;;;;4951040;29;20439;-79
2022/03/02 04:31:48;;;;;;;46.87;21.80;;;2.90;28.20;;;;;;4958516;28;20260;-78
2022/03/02 04:34:14;;;;;;;44.77;20.73;;;3.10;28.00;;;;;;4961124;29;20183;-79
2022/03/02 04:36:40;;;;;;;46.40;21.23;;;2.90;27.90;;;;;;4957434;28;20171;-80
2022/03/02 04:39:06;;;;;;;45.07;21.40;;;2.90;27.90;;;;;;4950476;29;20920;-79
2022/03/02 04:41:31;;;;;;;47.50;21.90;;;3.20;26.40;;;;;;4954262;29;20199;-79
2022/03/02 04:43:57;;;;;;;51.43;21.67;;;3.10;27.00;;;;;;4945649;29;20271;-79
2022/03/02 04:46:23;;;;;;;45.90;20.70;;;3.00;27.50;;;;;;4942026;29;20439;-79
2022/03/02 04:48:48;;;;;;;40.73;19.50;;;2.90;28.10;;;;;;4940860;29;20212;-79
2022/03/02 04:51:14;;;;;;;42.23;20.97;;;3.30;27.50;;;;;;4939819;29;20311;-79
2022/03/02 04:53:39;;;;;;;42.60;21.30;;;2.90;27.90;;;;;;4942953;29;20180;-79
2022/03/02 04:56:05;;;;;;;39.60;20.20;;;3.20;26.90;;;;;;4941562;29;20176;-79
2022/03/02 04:58:31;;;;;;;50.23;21.83;;;2.80;27.90;;;;;;4942314;29;20223;-79
2022/03/02 05:00:57;;;;;;;42.57;20.37;;;2.80;27.90;;;;;;4941376;29;20658;-79
2022/03/02 05:03:22;;;;;;;39.80;20.17;;;2.70;28.00;;;;;;4931369;29;20223;-80
2022/03/02 05:05:48;;;;;;;40.93;20.10;;;2.70;28.40;;;;;;4937599;29;20187;-80
2022/03/02 05:08:14;;;;;;;40.27;20.30;;;3.00;28.40;;;;;;4936559;29;20226;-79
2022/03/02 05:10:40;;;;;;;40.27;21.10;;;2.60;28.30;;;;;;4937467;29;20517;-80
2022/03/02 05:13:05;;;;;;;44.38;21.23;;;2.50;28.50;;;;;;4936285;29;20200;-80
2022/03/02 05:15:32;;;;;;;39.63;19.73;;;2.70;27.80;;;;;;4937437;29;20612;-80
2022/03/02 05:17:58;;;;;;;48.30;22.00;;;2.70;27.90;;;;;;4936872;29;20551;-79
2022/03/02 05:20:24;;;;;;;45.63;21.85;;;2.60;28.80;;;;;;4936410;29;20180;-80
2022/03/02 05:22:50;;;;;;;44.83;21.17;;;2.60;28.60;;;;;;4949486;29;20203;-80
2022/03/02 05:25:16;;;;;;;47.38;22.67;;;2.40;28.70;;;;;;4934555;29;20411;-80
2022/03/02 05:27:42;;;;;;;40.83;20.67;;;2.60;28.90;;;;;;4935346;29;20286;-80
2022/03/02 05:30:10;;;;;;;44.67;22.08;;;2.70;28.70;;;;;;4937111;29;20444;-79
2022/03/02 05:32:37;;;;;;;48.83;21.83;;;2.60;28.20;;;;;;4939535;29;20207;-79
2022/03/02 05:35:03;;;;;;;45.67;20.67;;;2.80;27.90;;;;;;4937698;29;20685;-79
2022/03/02 05:37:29;;;;;;;48.90;22.27;;;2.60;28.20;;;;;;4937615;29;20560;-79
2022/03/02 05:39:54;;;;;;;51.50;22.10;;;2.40;28.70;;;;;;4938085;29;20183;-79
2022/03/02 05:42:20;;;;;;;46.00;23.53;;;2.50;28.50;;;;;;4938720;29;20211;-79
2022/03/02 05:44:46;;;;;;;57.43;23.47;;;2.40;28.70;;;;;;4936684;29;20727;-80
2022/03/02 05:47:12;;;;;;;54.28;23.48;;;2.30;28.80;;;;;;4937757;29;20232;-79
2022/03/02 05:49:38;;;;;;;54.23;25.00;;;2.20;29.00;;;;;;4939514;29;20188;-79
2022/03/02 05:52:04;;;;;;;59.53;25.13;;;2.40;29.60;;;;;;4938487;29;20191;-79
2022/03/02 05:54:30;;;;;;;56.00;25.42;;;2.30;29.20;;;;;;4936893;29;20183;-79
2022/03/02 05:56:56;;;;;;;55.53;25.50;;;2.30;29.20;;;;;;4938567;29;20179;-79
2022/03/02 05:59:21;;;;;;;53.77;27.27;;;2.30;29.30;;;;;;4938932;29;20180;-79
2022/03/02 06:01:49;;;;;;;63.20;27.37;;;2.30;28.90;;;;;;4938913;29;20246;-79
2022/03/02 06:04:14;;;;;;;57.85;29.23;;;2.30;29.30;;;;;;4938603;29;20194;-79
2022/03/02 06:06:41;;;;;;;61.53;27.60;;;2.30;29.00;;;;;;4940379;29;20262;-79
2022/03/02 06:09:08;;;;;;;55.50;26.58;;;2.10;29.20;;;;;;4939960;29;20172;-80
2022/03/02 06:11:36;;;;;;;58.80;26.05;;;2.20;29.20;;;;;;4938377;29;20204;-77
2022/03/02 06:14:03;;;;;;;59.58;26.35;;;2.40;29.60;;;;;;4938180;29;20223;-81
2022/03/02 06:16:29;;;;;;;54.70;26.13;;;2.30;29.20;;;;;;4936392;29;20527;-81
2022/03/02 06:18:56;;;;;;;61.75;26.33;;;2.30;29.40;;;;;;4937555;29;20204;-81
2022/03/02 06:21:26;;;;;;;53.65;24.80;;;2.40;29.30;;;;;;4937656;29;20266;-81
2022/03/02 06:23:53;;;;;;;53.50;25.35;;;2.50;29.80;;;;;;4936570;29;20192;-81
2022/03/02 06:26:21;;;;;;;53.28;26.20;;;2.60;29.40;;;;;;4935939;29;20180;-81
2022/03/02 06:28:47;;;;;;;62.90;25.70;;;2.70;28.70;;;;;;4933765;29;20208;-78
2022/03/02 06:31:15;;;;;;;57.57;26.33;;;2.90;28.90;;;;;;4929757;29;20291;-78
2022/03/02 06:33:42;;;;;;;55.03;24.58;;;2.70;28.90;;;;;;4934999;29;20935;-79
2022/03/02 06:36:07;;;;;;;49.92;23.80;;;2.80;28.50;;;;;;4936442;29;20188;-79
2022/03/02 06:38:33;;;;;;;52.07;24.20;;;2.80;28.10;;;;;;4937158;29;20648;-79
2022/03/02 06:41:25;;;;;;;56.83;25.60;;;2.70;28.40;;;;;;4934105;29;20191;-79
2022/03/02 06:44:04;;;;;;;50.42;23.65;;;2.80;28.90;;;;;;4917315;29;20431;-78
2022/03/02 06:46:42;;;;;;;68.07;25.58;;;3.00;28.00;;;;;;4935560;29;20644;-78
2022/03/02 06:49:44;;;;;;;52.92;25.23;;;3.10;28.10;;;;;;4937307;29;20274;-78
2022/03/02 06:52:11;;;;;;;47.72;23.95;;;2.90;27.90;;;;;;4942132;29;20195;-80
2022/03/02 06:54:42;;;;;;;54.55;25.50;;;2.80;28.60;;;;;;4945196;29;20247;-80
2022/03/02 06:57:13;;;;;;;61.95;24.52;;;3.10;28.70;;;;;;4939541;29;20188;-80
2022/03/02 06:59:42;;;;;;;57.15;26.25;;;2.80;28.50;;;;;;4944981;29;20164;-80
2022/03/02 07:02:08;;;;;;;60.40;22.38;;;2.60;28.40;;;;;;4946150;29;20207;-79
2022/03/02 07:04:41;;;;;;;53.38;23.98;;;2.80;28.10;;;;;;4943465;29;20573;-80
2022/03/02 07:07:08;;;;;;;44.63;22.75;;;3.00;28.00;;;;;;4959837;28;20499;-80
2022/03/02 07:09:35;;;;;;;45.65;23.85;;;3.20;28.10;;;;;;4957779;28;20656;-80
2022/03/02 07:12:02;;;;;;;55.63;23.73;;;3.90;28.00;;;;;;4937025;29;20200;-79
2022/03/02 07:14:30;;;;;;;48.00;22.77;;;3.50;26.90;;;;;;4938410;29;20203;-80
2022/03/02 07:16:58;;;;;;;52.95;24.20;;;3.40;26.90;;;;;;4939324;29;20176;-79
2022/03/02 07:19:25;;;;;;;52.67;23.63;;;3.40;27.20;;;;;;4938731;29;20176;-80
2022/03/02 07:21:51;;;;;;;60.03;27.45;;;3.60;27.20;;;;;;4940230;29;20196;-79
2022/03/02 07:24:19;;;;;;;62.08;28.60;;;3.80;27.00;;;;;;4940340;29;20184;-79
2022/03/02 07:26:50;;;;;;;62.50;26.50;;;3.80;27.10;;;;;;4941092;29;20639;-79
2022/03/02 07:29:18;;;;;;;57.70;26.80;;;3.70;26.50;;;;;;4939653;29;20174;-79
2022/03/02 07:31:45;;;;;;;58.25;28.63;;;3.90;26.80;;;;;;4953636;29;20734;-80
2022/03/02 07:34:12;;;;;;;61.83;28.35;;;4.00;26.60;;;;;;4938022;29;20211;-80
2022/03/02 07:36:40;;;;;;;66.45;25.95;;;4.00;26.40;;;;;;4939649;29;20664;-79
2022/03/02 07:39:07;;;;;;;53.30;26.67;;;4.20;26.30;;;;;;4939786;29;20187;-79
2022/03/02 07:41:33;;;;;;;58.88;25.45;;;4.30;26.00;;;;;;4937866;29;20864;-79
2022/03/02 07:43:59;;;;;;;54.10;24.40;;;4.50;25.50;;;;;;4939747;29;20310;-80
2022/03/02 07:46:29;;;;;;;54.60;25.20;;;4.60;25.40;;;;;;4939022;29;20339;-79
2022/03/02 07:48:55;;;;;;;58.50;24.30;;;5.20;25.30;;;;;;4939552;29;20570;-79
2022/03/02 07:51:22;;;;;;;65.28;26.45;;;4.90;25.00;;;;;;4937365;29;20192;-80
2022/03/02 07:53:49;;;;;;;57.05;25.23;;;4.50;25.20;;;;;;4932388;29;20188;-82
2022/03/02 07:56:16;;;;;;;50.35;25.85;;;4.10;26.70;;;;;;4955669;29;20179;-81
2022/03/02 07:58:42;;;;;;;55.10;24.55;;;4.00;27.20;;;;;;4954206;29;20597;-81
2022/03/02 08:01:12;;;;;;;51.23;25.37;;;3.80;27.00;;;;;;4937295;29;20200;-81
2022/03/02 08:03:40;;;;;;;63.40;25.40;;;4.20;26.30;;;;;;4929800;29;20263;-80
2022/03/02 08:06:07;;;;;;;48.25;22.73;;;4.40;26.50;;;;;;4934062;29;20540;-79
2022/03/02 08:08:35;;;;;;;49.83;23.25;;;4.20;25.80;;;;;;4917723;29;20227;-78
2022/03/02 08:11:03;;;;;;;45.38;22.38;;;4.00;26.80;;;;;;4930230;29;20188;-78
2022/03/02 08:13:33;;;;;;;52.75;23.30;;;3.90;26.50;;;;;;4935918;29;20543;-79
2022/03/02 08:16:00;;;;;;;55.17;26.73;;;3.90;26.60;;;;;;4935377;29;20198;-78
2022/03/02 08:18:26;;;;;;;51.45;23.08;;;5.30;28.10;;;;;;4934119;29;20188;-78
2022/03/02 08:20:55;;;;;;;48.60;23.65;;;3.30;28.20;;;;;;4936089;29;20199;-83
2022/03/02 08:23:23;;;;;;;43.95;23.65;;;3.70;28.50;;;;;;4927849;29;20204;-78
2022/03/02 08:25:52;;;;;;;53.15;23.20;;;4.00;26.80;;;;;;4920300;29;20192;-79
2022/03/02 08:28:19;;;;;;;44.50;23.08;;;4.90;26.00;;;;;;4926440;29;20692;-80
2022/03/02 08:30:48;;;;;;;46.22;23.38;;;5.20;25.70;;;;;;4916597;29;20224;-79
2022/03/02 08:33:19;;;;;;;53.40;24.77;;;5.20;25.10;;;;;;4916539;29;20200;-79
2022/03/02 08:35:45;;;;;;;54.08;26.15;;;5.10;25.70;;;;;;4916599;29;20161;-79
2022/03/02 08:38:12;;;;;;;50.85;24.95;;;5.30;25.80;;;;;;4934352;29;20203;-78
2022/03/02 08:40:38;;;;;;;63.78;28.38;;;5.50;25.30;;;;;;4935484;29;20176;-79
2022/03/02 08:43:05;;;;;;;55.33;25.40;;;5.90;25.20;;;;;;4935259;29;20196;-79
2022/03/02 08:45:31;;;;;;;47.53;25.65;;;6.10;24.60;;;;;;4935539;29;20420;-79
2022/03/02 08:48:00;;;;;;;58.30;25.02;;;6.30;24.40;;;;;;4935160;29;20226;-79
2022/03/02 08:50:26;;;;;;;53.97;25.55;;;6.30;24.00;;;;;;4933046;29;20176;-79
2022/03/02 08:52:54;;;;;;;55.47;24.83;;;6.30;24.00;;;;;;4933944;29;20692;-79
2022/03/02 08:55:20;;;;;;;60.58;28.67;;;6.70;23.60;;;;;;4935189;29;20176;-80
2022/03/02 08:57:46;;;;;;;47.25;24.65;;;6.70;23.00;;;;;;4934148;29;20188;-79
2022/03/02 09:00:15;;;;;;;60.13;25.70;;;7.10;23.10;;;;;;4933424;29;20202;-79
2022/03/02 09:02:42;;;;;;;48.25;25.40;;;6.80;23.50;;;;;;4935024;29;20439;-79
2022/03/02 09:05:09;;;;;;;46.70;21.88;;;7.20;22.50;;;;;;4935449;29;20589;-79
2022/03/02 09:07:35;;;;;;;50.78;24.15;;;7.00;22.30;;;;;;4934952;29;20204;-78
2022/03/02 09:10:01;;;;;;;50.08;23.95;;;6.70;23.00;;;;;;4935238;29;20168;-79
2022/03/02 09:12:27;;;;;;;43.05;22.30;;;7.20;21.90;;;;;;4934743;29;20668;-78
2022/03/02 09:14:54;;;;;;;42.13;21.90;;;6.90;21.80;;;;;;4948003;28;20194;-79
2022/03/02 09:17:25;;;;;;;38.50;21.42;;;7.00;22.50;;;;;;4934468;29;20446;-79
2022/03/02 09:19:52;;;;;;;44.72;21.73;;;7.60;21.30;;;;;;4933742;29;20168;-79
2022/03/02 09:22:18;;;;;;;39.47;21.15;;;8.30;20.00;;;;;;4934802;29;20663;-79
2022/03/02 09:24:45;;;;;;;45.83;21.75;;;8.60;19.20;;;;;;4935022;29;20215;-80
2022/03/02 09:27:11;;;;;;;39.20;21.92;;;8.90;18.80;;;;;;4934463;29;20204;-79
2022/03/02 09:29:42;;;;;;;46.47;22.98;;;9.20;19.00;;;;;;4919604;29;20240;-79
2022/03/02 09:32:10;;;;;;;41.25;21.65;;;8.90;20.10;;;;;;4930156;29;20210;-79
2022/03/02 09:34:39;;;;;;;40.88;20.58;;;8.20;20.20;;;;;;4915489;29;20185;-79
2022/03/02 09:37:11;;;;;;;36.15;19.65;;;8.00;20.60;;;;;;4915229;29;20253;-78
2022/03/02 09:39:37;;;;;;;42.10;21.35;;;7.90;21.00;;;;;;4915542;29;20166;-78
2022/03/02 09:42:10;;;;;;;52.70;22.70;;;8.00;20.70;;;;;;4929654;29;20232;-78
2022/03/02 09:44:43;;;;;;;44.38;22.45;;;7.70;21.10;;;;;;4916793;29;20231;-78
2022/03/02 09:47:18;;;;;;;41.13;23.20;;;8.00;20.80;;;;;;4934060;29;20225;-79
2022/03/02 09:49:48;;;;;;;40.38;21.85;;;8.20;19.90;;;;;;4934187;29;20412;-79
2022/03/02 09:52:19;;;;;;;40.47;21.88;;;8.20;20.20;;;;;;4934141;29;20195;-80
2022/03/02 09:54:45;;;;;;;43.08;23.75;;;6.40;18.50;;;;;;4934408;29;20161;-79
2022/03/02 09:57:15;;;;;;;50.20;23.35;;;7.60;21.20;;;;;;4933923;29;20579;-78
2022/03/02 09:59:41;;;;;;;77.75;24.50;;;7.30;22.00;;;;;;4924010;29;20648;-78
2022/03/02 10:02:08;;;;;;;48.07;25.13;;;7.60;22.10;;;;;;4930056;29;20227;-78
2022/03/02 10:04:37;;;;;;;45.35;24.45;;;7.30;23.10;;;;;;4933999;29;20231;-78
2022/03/02 10:07:26;;;;;;;53.63;24.13;;;7.60;21.70;;;;;;4932388;29;20195;-79
2022/03/02 10:10:07;;;;;;;44.88;25.10;;;7.80;21.10;;;;;;4933976;29;20164;-78
2022/03/02 10:12:33;;;;;;;43.75;24.13;;;8.00;21.20;;;;;;4932181;29;20217;-78
2022/03/02 10:15:01;;;;;;;49.42;25.38;;;8.20;21.90;;;;;;4947462;28;20199;-79
2022/03/02 10:17:33;;;;;;;54.90;27.15;;;8.10;21.50;;;;;;4932303;29;20184;-78
2022/03/02 10:20:11;;;;;;;47.33;24.75;;;8.60;21.40;;;;;;4934030;29;20182;-78
2022/03/02 10:22:39;;;;;;;41.75;23.00;;;9.40;19.60;;;;;;4934707;29;20205;-79
2022/03/02 10:25:16;;;;;;;51.20;25.17;;;8.70;20.00;;;;;;4936750;29;20187;-78
2022/03/02 10:28:02;;;;;;;50.13;25.50;;;7.90;20.50;;;;;;4937477;29;20206;-78
2022/03/02 10:30:35;;;;;;;46.88;25.15;;;8.60;20.80;;;;;;4922860;29;20187;-79
2022/03/02 10:33:22;;;;;;;51.10;25.52;;;9.50;20.20;;;;;;4916135;29;20678;-80
2022/03/02 10:36:01;;;;;;;51.58;23.98;;;9.70;19.40;;;;;;4915926;29;20185;-79
2022/03/02 10:38:40;;;;;;;42.40;24.30;;;10.20;18.10;;;;;;4915462;29;20187;-78
2022/03/02 10:41:08;;;;;;;50.83;24.13;;;10.00;17.60;;;;;;4914872;29;20464;-79
2022/03/02 10:43:48;;;;;;;47.10;25.27;;;9.50;19.80;;;;;;4929529;29;20764;-79
2022/03/02 10:46:20;;;;;;;47.35;25.60;;;9.30;19.70;;;;;;4922745;29;20455;-79
2022/03/02 10:49:03;;;;;;;45.72;24.00;;;8.90;20.00;;;;;;4948341;28;20212;-79
2022/03/02 10:51:31;;;;;;;48.70;26.20;;;9.60;20.20;;;;;;4934051;29;20196;-78
2022/03/02 10:54:01;;;;;;;51.97;26.40;;;9.70;19.40;;;;;;4934001;29;20491;-79
2022/03/02 10:56:29;;;;;;;51.00;26.00;;;9.90;18.90;;;;;;4933428;29;20396;-78
2022/03/02 10:58:57;;;;;;;45.17;25.20;;;10.10;18.60;;;;;;4933637;29;20411;-79
2022/03/02 11:01:23;;;;;;;45.07;24.00;;;10.50;18.90;;;;;;4916984;29;20460;-78
2022/03/02 11:03:48;;;;;;;53.37;26.83;;;11.00;17.60;;;;;;4914858;29;20433;-79
2022/03/02 11:06:14;;;;;;;46.10;25.10;;;11.30;16.80;;;;;;4914926;29;20177;-79
2022/03/02 11:08:43;;;;;;;45.40;26.27;;;11.50;17.20;;;;;;4914725;29;20237;-78
2022/03/02 11:11:11;;;;;;;56.83;26.17;;;12.70;15.70;;;;;;4914168;29;20405;-77
2022/03/02 11:13:37;;;;;;;44.90;24.50;;;12.60;14.80;;;;;;4914535;29;20508;-78
2022/03/02 11:16:05;;;;;;;47.77;26.23;;;12.50;15.00;;;;;;4917057;29;20425;-78
2022/03/02 11:18:39;;;;;;;46.23;26.13;;;10.90;17.40;;;;;;4933744;29;20425;-79
2022/03/02 11:21:13;;;;;;;51.70;25.43;;;11.40;17.50;;;;;;4933335;29;20418;-79
2022/03/02 11:23:49;;;;;;;51.17;26.83;;;10.80;17.60;;;;;;4935324;29;20827;-79
2022/03/02 11:26:27;;;;;;;47.17;25.30;;;11.60;16.40;;;;;;4951664;29;20423;-79
2022/03/02 11:28:55;;;;;;;45.23;26.07;;;12.20;16.10;;;;;;4944204;29;21013;-81
2022/03/02 11:31:30;;;;;;;44.10;25.70;;;12.40;16.00;;;;;;4951839;29;20450;-80
2022/03/02 11:34:10;;;;;;;50.90;27.13;;;11.60;17.00;;;;;;4934738;29;20438;-81
2022/03/02 11:36:38;;;;;;;50.20;26.43;;;11.80;16.90;;;;;;4920223;29;20413;-79
2022/03/02 11:39:05;;;;;;;53.80;26.00;;;12.20;17.30;;;;;;4919387;29;20431;-79
2022/03/02 11:41:36;;;;;;;43.53;25.30;;;11.80;17.60;;;;;;4932146;29;20448;-79
2022/03/02 11:44:04;;;;;;;45.00;26.33;;;11.80;17.30;;;;;;4917810;29;20964;-80
2022/03/02 11:46:30;;;;;;;44.10;26.03;;;11.80;17.30;;;;;;4916966;29;20413;-79
2022/03/02 11:48:56;;;;;;;42.80;26.10;;;11.70;17.60;;;;;;4917512;29;20998;-79
2022/03/02 11:51:27;;;;;;;43.00;25.80;;;12.30;17.20;;;;;;4917306;29;20484;-79
2022/03/02 11:53:58;;;;;;;46.13;25.10;;;12.20;16.00;;;;;;4917655;29;20427;-79
2022/03/02 11:56:26;;;;;;;48.43;25.50;;;11.90;16.50;;;;;;4917620;29;20389;-79
2022/03/02 11:59:07;;;;;;;46.33;23.50;;;11.60;16.40;;;;;;4917554;29;20753;-80
2022/03/02 12:01:41;;;;;;;45.00;24.77;;;11.50;17.20;;;;;;4917397;29;20908;-79
2022/03/02 12:04:07;;;;;;;44.60;25.50;;;11.30;18.10;;;;;;4917142;29;20783;-79
2022/03/02 12:06:45;;;;;;;39.07;23.57;;;11.70;18.70;;;;;;4916638;29;20456;-78
2022/03/02 12:09:22;;;;;;;49.20;23.40;;;12.90;16.90;;;;;;4915780;29;20523;-79
2022/03/02 12:11:48;;;;;;;42.20;24.37;;;12.50;16.80;;;;;;4934923;29;20904;-78
2022/03/02 12:14:15;;;;;;;38.10;22.30;;;13.30;16.30;;;;;;4935149;29;20923;-79
2022/03/02 12:16:48;;;;;;;38.80;22.00;;;13.10;14.80;;;;;;4936805;29;20200;-79
2022/03/02 12:19:21;;;;;;;41.00;22.40;;;12.90;14.80;;;;;;4936527;29;20814;-78
2022/03/02 12:21:47;;;;;;;33.20;19.10;;;13.80;13.90;;;;;;4934399;29;20996;-77
2022/03/02 12:24:19;;;;;;;26.83;17.93;;;14.10;11.10;;;;;;4934562;29;21011;-77
2022/03/02 12:26:49;;;;;;;33.40;20.40;;;14.50;9.90;;;;;;4928119;29;20434;-76
2022/03/02 12:29:16;;;;;;;35.60;19.20;;;14.70;10.80;;;;;;4916674;29;20595;-78
2022/03/02 12:31:44;;;;;;;29.63;18.80;;;14.60;11.30;;;;;;4917205;29;20473;-77
2022/03/02 12:34:16;;;;;;;36.63;18.40;;;14.00;10.90;;;;;;4916098;29;20445;-77
2022/03/02 12:36:43;;;;;;;43.47;19.17;;;13.30;11.30;;;;;;4916003;29;20413;-78
2022/03/02 12:39:10;;;;;;;48.47;20.27;;;13.00;12.90;;;;;;4916266;29;20413;-79